Time;durP1;ratioP1;P1;durP2;ratioP2;P2;SDS_P1;SDS_P2;PMS_P1;PMS_P2;Temp;Humidity;BMP_temperature;BMP_pressure;BME280_temperature;BME280_humidity;BME280_pressure;Samples;Min_cycle;Max_cycle;Signal;HPM_P1;HPM_P2
2022/03/28 00:01:33;;;;;;;0.10;0.10;;;4.60;1.00;;;;;;5117529;28;20050;-73
2022/03/28 00:04:00;;;;;;;1.10;0.80;;;4.60;1.00;;;;;;5117759;28;20040;-74
2022/03/28 00:06:26;;;;;;;0.00;0.00;;;4.50;1.00;;;;;;5117575;28;20039;-73
2022/03/28 00:08:52;;;;;;;0.20;0.20;;;4.60;1.00;;;;;;5117380;28;20044;-74
2022/03/28 00:11:18;;;;;;;0.73;0.73;;;4.50;1.00;;;;;;5117334;28;20493;-73
2022/03/28 00:13:45;;;;;;;0.10;0.10;;;4.50;1.00;;;;;;5117575;28;20042;-74
2022/03/28 00:16:12;;;;;;;4.90;0.55;;;4.40;1.00;;;;;;5117043;28;20044;-74
2022/03/28 00:18:38;;;;;;;0.40;0.40;;;4.40;1.00;;;;;;5117489;28;20035;-73
2022/03/28 00:21:03;;;;;;;0.20;0.20;;;4.40;1.00;;;;;;5117550;28;20039;-73
2022/03/28 00:23:32;;;;;;;0.10;0.10;;;4.40;1.00;;;;;;5117983;28;20088;-74
2022/03/28 00:26:01;;;;;;;0.20;0.20;;;4.40;1.00;;;;;;5117329;28;20138;-74
2022/03/28 00:28:27;;;;;;;0.10;0.10;;;4.30;1.00;;;;;;5117894;28;20039;-73
2022/03/28 00:30:53;;;;;;;0.20;0.20;;;4.20;1.00;;;;;;5117029;28;20040;-74
2022/03/28 00:33:19;;;;;;;0.50;0.50;;;4.10;1.00;;;;;;5116906;28;20041;-74
2022/03/28 00:35:45;;;;;;;1.08;1.00;;;4.10;1.00;;;;;;5117143;28;20122;-74
2022/03/28 00:38:13;;;;;;;0.05;0.05;;;4.10;1.00;;;;;;5116836;28;20075;-73
2022/03/28 00:40:39;;;;;;;0.25;0.25;;;4.10;1.00;;;;;;5116886;28;20050;-73
2022/03/28 00:43:08;;;;;;;0.10;0.10;;;4.10;1.00;;;;;;5117028;28;20046;-73
2022/03/28 00:45:37;;;;;;;0.45;0.45;;;4.00;1.00;;;;;;5116261;28;20036;-73
2022/03/28 00:48:04;;;;;;;0.10;0.10;;;4.00;1.00;;;;;;5116878;28;20130;-74
2022/03/28 00:50:30;;;;;;;0.10;0.10;;;4.00;1.00;;;;;;5117037;28;20043;-74
2022/03/28 00:52:57;;;;;;;2.08;0.45;;;4.10;1.00;;;;;;5116935;28;20039;-74
2022/03/28 00:55:23;;;;;;;0.10;0.10;;;4.10;1.00;;;;;;5116619;28;20177;-74
2022/03/28 00:57:49;;;;;;;0.10;0.10;;;4.10;1.00;;;;;;5116724;28;20072;-74
2022/03/28 01:00:15;;;;;;;0.52;0.52;;;4.00;1.00;;;;;;5116683;28;20134;-74
2022/03/28 01:02:41;;;;;;;0.10;0.10;;;4.00;1.00;;;;;;5116344;28;20039;-74
2022/03/28 01:05:08;;;;;;;0.10;0.10;;;4.00;1.00;;;;;;5116572;28;20599;-74
2022/03/28 01:07:34;;;;;;;0.00;0.00;;;4.00;1.00;;;;;;5116562;28;20039;-74
2022/03/28 01:10:02;;;;;;;0.40;0.40;;;3.90;1.00;;;;;;5116774;28;20046;-74
2022/03/28 01:12:31;;;;;;;0.40;0.40;;;3.80;4.90;;;;;;5116445;28;20035;-73
2022/03/28 01:14:57;;;;;;;0.10;0.10;;;3.80;4.00;;;;;;5115822;28;20036;-74
2022/03/28 01:20:09;;;;;;;0.43;0.43;;;3.90;1.00;;;;;;5115529;28;20137;-73
2022/03/28 01:22:35;;;;;;;0.00;0.00;;;3.80;2.90;;;;;;5115973;28;20112;-74
2022/03/28 01:25:05;;;;;;;0.32;0.32;;;3.90;2.40;;;;;;5116046;28;20036;-73
2022/03/28 01:27:31;;;;;;;0.22;0.22;;;3.90;1.00;;;;;;5115852;28;20127;-73
2022/03/28 01:29:57;;;;;;;0.10;0.10;;;3.80;4.90;;;;;;5115839;28;20048;-73
2022/03/28 01:32:23;;;;;;;0.10;0.10;;;3.80;8.10;;;;;;5115784;28;20116;-74
2022/03/28 01:34:49;;;;;;;0.10;0.10;;;3.70;2.10;;;;;;5115757;28;20039;-74
2022/03/28 01:37:15;;;;;;;0.10;0.10;;;3.70;6.40;;;;;;5115798;28;20044;-74
2022/03/28 01:39:41;;;;;;;0.00;0.00;;;3.70;6.10;;;;;;5115397;28;20506;-73
2022/03/28 01:42:07;;;;;;;0.10;0.10;;;3.60;6.80;;;;;;5114611;28;20486;-74
2022/03/28 01:44:33;;;;;;;0.20;0.20;;;3.60;5.10;;;;;;5115595;28;20040;-73
2022/03/28 01:46:59;;;;;;;0.10;0.10;;;3.60;8.20;;;;;;5115206;28;20071;-74
2022/03/28 01:49:24;;;;;;;0.20;0.20;;;3.50;4.10;;;;;;5116074;28;20092;-73
2022/03/28 01:51:51;;;;;;;0.17;0.17;;;3.50;6.10;;;;;;5115452;28;20123;-73
2022/03/28 01:54:17;;;;;;;0.22;0.22;;;3.50;4.60;;;;;;5115359;28;20039;-73
2022/03/28 01:56:44;;;;;;;0.30;0.30;;;3.50;7.70;;;;;;5115328;28;20039;-74
2022/03/28 01:59:11;;;;;;;0.10;0.10;;;3.50;5.00;;;;;;5115057;28;20116;-73
2022/03/28 02:01:37;;;;;;;0.40;0.40;;;3.50;10.90;;;;;;5114970;28;20035;-74
2022/03/28 02:04:04;;;;;;;0.00;0.00;;;3.50;10.20;;;;;;5115298;28;20035;-73
2022/03/28 02:06:32;;;;;;;0.20;0.20;;;3.60;11.70;;;;;;5114998;28;20039;-74
2022/03/28 02:08:58;;;;;;;0.20;0.20;;;3.60;9.70;;;;;;5114923;28;20048;-74
2022/03/28 02:11:24;;;;;;;0.10;0.10;;;3.40;2.10;;;;;;5114956;28;20036;-73
2022/03/28 02:13:50;;;;;;;0.10;0.10;;;3.30;11.70;;;;;;5114867;28;20375;-73
2022/03/28 02:16:16;;;;;;;2.03;0.90;;;3.50;14.90;;;;;;5115502;28;20052;-73
2022/03/28 02:18:42;;;;;;;0.20;0.20;;;3.40;11.90;;;;;;5115395;28;20493;-73
2022/03/28 02:21:08;;;;;;;4.90;0.52;;;3.40;11.10;;;;;;5115230;28;20067;-73
2022/03/28 02:23:34;;;;;;;0.22;0.22;;;3.40;11.20;;;;;;5115320;28;20031;-73
2022/03/28 02:26:00;;;;;;;0.95;0.60;;;3.30;10.20;;;;;;5115138;28;20044;-73
2022/03/28 02:28:26;;;;;;;0.28;0.28;;;3.30;13.70;;;;;;5114995;28;20043;-74
2022/03/28 02:30:53;;;;;;;0.45;0.35;;;3.30;18.50;;;;;;5115466;28;20044;-73
2022/03/28 02:33:20;;;;;;;0.15;0.15;;;3.30;17.10;;;;;;5115244;28;20035;-73
2022/03/28 02:35:46;;;;;;;1.25;0.90;;;3.20;16.00;;;;;;5115251;28;20486;-73
2022/03/28 02:38:12;;;;;;;0.03;0.03;;;3.20;15.20;;;;;;5115218;28;20039;-73
2022/03/28 02:40:38;;;;;;;0.20;0.20;;;3.10;16.60;;;;;;5114704;28;20122;-73
2022/03/28 02:43:04;;;;;;;0.22;0.22;;;3.20;18.90;;;;;;5115118;28;20039;-73
2022/03/28 02:45:32;;;;;;;0.00;0.00;;;3.20;16.50;;;;;;5115101;28;20040;-73
2022/03/28 02:48:01;;;;;;;0.20;0.20;;;3.10;10.70;;;;;;5114815;28;20489;-73
2022/03/28 02:50:28;;;;;;;3.95;0.35;;;3.00;21.70;;;;;;5114989;28;20047;-73
2022/03/28 02:52:55;;;;;;;0.10;0.10;;;3.10;15.10;;;;;;5116001;28;20505;-73
2022/03/28 02:55:21;;;;;;;0.13;0.13;;;3.10;16.30;;;;;;5118669;28;20127;-73
2022/03/28 02:57:47;;;;;;;0.08;0.08;;;3.10;17.70;;;;;;5119117;28;20039;-73
2022/03/28 03:00:13;;;;;;;1.00;1.00;;;3.00;15.80;;;;;;5119065;28;20032;-73
2022/03/28 03:02:40;;;;;;;0.20;0.20;;;2.90;24.20;;;;;;5118716;28;20035;-73
2022/03/28 03:05:07;;;;;;;0.20;0.20;;;3.00;23.80;;;;;;5118667;28;20473;-73
2022/03/28 03:07:33;;;;;;;0.38;0.38;;;3.00;17.30;;;;;;5118901;28;20104;-74
2022/03/28 03:09:59;;;;;;;0.10;0.10;;;2.90;23.00;;;;;;5118885;28;20082;-73
2022/03/28 03:12:25;;;;;;;0.05;0.05;;;2.90;25.90;;;;;;5118408;28;20066;-73
2022/03/28 03:14:51;;;;;;;0.20;0.20;;;2.90;20.90;;;;;;5118538;28;20466;-73
2022/03/28 03:17:17;;;;;;;0.20;0.20;;;2.90;15.90;;;;;;5117873;28;20469;-73
2022/03/28 03:19:44;;;;;;;0.00;0.00;;;2.90;21.30;;;;;;5118139;28;20039;-73
2022/03/28 03:22:12;;;;;;;0.03;0.03;;;2.80;14.60;;;;;;5118314;28;20036;-73
2022/03/28 03:24:38;;;;;;;0.08;0.08;;;2.80;21.70;;;;;;5117977;28;20482;-73
2022/03/28 03:27:04;;;;;;;0.10;0.10;;;2.90;19.10;;;;;;5117921;28;20521;-74
2022/03/28 03:29:30;;;;;;;0.25;0.25;;;2.70;15.80;;;;;;5117981;28;20126;-73
2022/03/28 03:31:56;;;;;;;0.10;0.10;;;2.70;22.80;;;;;;5117869;28;20043;-74
2022/03/28 03:34:22;;;;;;;0.00;0.00;;;2.70;27.00;;;;;;5118659;28;20146;-73
2022/03/28 03:36:48;;;;;;;0.10;0.10;;;2.70;31.10;;;;;;5118094;28;20085;-73
2022/03/28 03:39:14;;;;;;;0.10;0.10;;;2.60;31.40;;;;;;5118000;28;20039;-73
2022/03/28 03:41:39;;;;;;;0.00;0.00;;;2.60;35.10;;;;;;5117536;28;20039;-73
2022/03/28 03:44:06;;;;;;;0.20;0.20;;;2.70;28.10;;;;;;5117932;28;20569;-73
2022/03/28 03:46:32;;;;;;;0.20;0.20;;;2.80;23.80;;;;;;5118133;28;20078;-73
2022/03/28 03:48:58;;;;;;;0.00;0.00;;;2.70;26.70;;;;;;5117741;28;20043;-74
2022/03/28 03:51:24;;;;;;;0.82;0.25;;;2.80;30.30;;;;;;5117621;28;20572;-73
2022/03/28 03:53:51;;;;;;;0.10;0.10;;;2.70;27.30;;;;;;5117618;28;20039;-73
2022/03/28 03:56:17;;;;;;;0.88;0.88;;;2.50;23.90;;;;;;5117412;28;20044;-73
2022/03/28 03:58:43;;;;;;;0.00;0.00;;;2.60;35.60;;;;;;5117555;28;20044;-74
2022/03/28 04:01:09;;;;;;;0.00;0.00;;;2.60;32.20;;;;;;5084312;28;20047;-74
2022/03/28 04:03:36;;;;;;;0.10;0.10;;;2.60;38.10;;;;;;5096740;28;20067;-74
2022/03/28 04:06:02;;;;;;;0.10;0.10;;;2.60;32.60;;;;;;5105716;28;20032;-73
2022/03/28 04:08:28;;;;;;;0.20;0.20;;;2.60;32.70;;;;;;5117382;28;20398;-73
2022/03/28 04:10:54;;;;;;;0.10;0.10;;;2.70;36.60;;;;;;5100380;28;20059;-73
2022/03/28 04:13:21;;;;;;;0.28;0.28;;;2.60;23.70;;;;;;5107563;28;20031;-73
2022/03/28 04:15:48;;;;;;;0.10;0.10;;;2.60;26.20;;;;;;5113788;28;20062;-71
2022/03/28 04:18:14;;;;;;;0.20;0.20;;;2.60;32.00;;;;;;5102601;28;20039;-72
2022/03/28 04:20:40;;;;;;;0.43;0.43;;;2.60;30.80;;;;;;5098215;28;20052;-72
2022/03/28 04:23:06;;;;;;;0.20;0.20;;;2.60;31.90;;;;;;5097163;28;20040;-72
2022/03/28 04:25:32;;;;;;;0.10;0.10;;;2.60;38.50;;;;;;5097003;28;20050;-72
2022/03/28 04:27:58;;;;;;;0.00;0.00;;;2.50;36.60;;;;;;5097512;28;20044;-72
2022/03/28 04:30:24;;;;;;;0.10;0.10;;;2.50;28.10;;;;;;5095997;28;20185;-71
2022/03/28 04:32:50;;;;;;;0.10;0.10;;;2.50;27.10;;;;;;5097091;28;20062;-71
2022/03/28 04:35:17;;;;;;;0.10;0.10;;;2.50;31.60;;;;;;5096363;28;20036;-71
2022/03/28 04:37:43;;;;;;;0.30;0.30;;;2.40;30.60;;;;;;5096461;28;20491;-71
2022/03/28 04:40:13;;;;;;;0.10;0.10;;;2.30;28.80;;;;;;5095617;28;20548;-73
2022/03/28 04:42:39;;;;;;;0.30;0.30;;;2.20;36.10;;;;;;5096318;28;20487;-73
2022/03/28 04:45:06;;;;;;;0.20;0.20;;;2.30;45.60;;;;;;5096639;28;20309;-73
2022/03/28 04:47:32;;;;;;;0.43;0.43;;;2.20;31.40;;;;;;5096562;28;20032;-73
2022/03/28 04:49:58;;;;;;;0.20;0.20;;;2.10;35.00;;;;;;5096753;28;20044;-72
2022/03/28 04:52:24;;;;;;;0.05;0.05;;;2.00;34.80;;;;;;5096492;28;20077;-73
2022/03/28 04:54:50;;;;;;;0.10;0.10;;;2.10;40.20;;;;;;5078285;28;20036;-73
2022/03/28 04:57:16;;;;;;;0.25;0.25;;;2.10;43.90;;;;;;5096028;28;20050;-73
2022/03/28 04:59:42;;;;;;;0.20;0.20;;;2.10;53.80;;;;;;5096344;28;20044;-73
2022/03/28 05:02:08;;;;;;;0.20;0.20;;;2.10;45.00;;;;;;5096281;28;20078;-72
2022/03/28 05:04:33;;;;;;;0.00;0.00;;;2.10;43.90;;;;;;5096522;28;20471;-73
2022/03/28 05:06:59;;;;;;;0.20;0.20;;;2.20;51.70;;;;;;5096239;28;20047;-73
2022/03/28 05:09:25;;;;;;;0.08;0.08;;;2.20;45.60;;;;;;5095862;28;20048;-73
2022/03/28 05:11:51;;;;;;;0.10;0.10;;;2.20;46.20;;;;;;5095973;28;20035;-72
2022/03/28 05:14:18;;;;;;;0.22;0.22;;;2.10;49.60;;;;;;5096055;28;20122;-73
2022/03/28 05:16:44;;;;;;;0.75;0.57;;;2.00;59.70;;;;;;5094554;28;20063;-73
2022/03/28 05:19:10;;;;;;;0.20;0.20;;;2.10;52.90;;;;;;5095405;28;20514;-73
2022/03/28 05:21:36;;;;;;;0.20;0.20;;;2.10;48.40;;;;;;5095335;28;20066;-73
2022/03/28 05:24:02;;;;;;;0.15;0.15;;;2.10;48.20;;;;;;5097940;28;20054;-72
2022/03/28 05:26:28;;;;;;;1.20;0.30;;;2.10;46.10;;;;;;5101370;28;20040;-73
2022/03/28 05:28:54;;;;;;;0.00;0.00;;;2.10;57.10;;;;;;5096061;28;20490;-73
2022/03/28 05:31:20;;;;;;;0.10;0.10;;;2.00;53.00;;;;;;5094901;28;20032;-73
2022/03/28 05:33:46;;;;;;;0.03;0.03;;;2.00;47.90;;;;;;5095591;28;20040;-72
2022/03/28 05:36:13;;;;;;;0.50;0.50;;;2.00;49.80;;;;;;5108290;28;20039;-72
2022/03/28 05:38:39;;;;;;;0.10;0.10;;;2.00;48.10;;;;;;5115682;28;20123;-72
2022/03/28 05:41:06;;;;;;;0.00;0.00;;;2.10;55.90;;;;;;5114661;28;20085;-74
2022/03/28 05:43:34;;;;;;;0.15;0.15;;;2.10;46.80;;;;;;5115167;28;20027;-74
2022/03/28 05:46:00;;;;;;;0.00;0.00;;;2.20;51.40;;;;;;5096248;28;20056;-73
2022/03/28 05:48:26;;;;;;;0.52;0.52;;;2.10;33.90;;;;;;5098673;28;20036;-73
2022/03/28 05:50:52;;;;;;;0.50;0.50;;;2.20;47.20;;;;;;5109356;28;20050;-73
2022/03/28 05:53:19;;;;;;;0.35;0.35;;;2.20;44.50;;;;;;5115717;28;20474;-72
2022/03/28 05:55:44;;;;;;;0.20;0.20;;;2.30;34.20;;;;;;5115392;28;20123;-74
2022/03/28 05:58:11;;;;;;;0.10;0.10;;;2.30;30.00;;;;;;5097269;28;20090;-74
2022/03/28 06:00:38;;;;;;;0.10;0.10;;;2.30;29.20;;;;;;5095132;28;20089;-74
2022/03/28 06:03:08;;;;;;;0.00;0.00;;;2.40;21.70;;;;;;5098253;28;20067;-74
2022/03/28 06:05:37;;;;;;;0.32;0.28;;;2.50;24.90;;;;;;5093996;28;20319;-74
2022/03/28 06:08:04;;;;;;;2.17;1.27;;;2.70;26.60;;;;;;5091508;28;20052;-73
2022/03/28 06:10:30;;;;;;;0.10;0.10;;;2.80;11.20;;;;;;5094331;28;20059;-75
2022/03/28 06:12:56;;;;;;;0.10;0.10;;;2.90;14.20;;;;;;5107929;28;20040;-75
2022/03/28 06:15:22;;;;;;;0.10;0.10;;;3.00;11.40;;;;;;5114646;28;20506;-75
2022/03/28 06:17:48;;;;;;;0.17;0.17;;;3.20;5.60;;;;;;5110590;28;20071;-75
2022/03/28 06:20:14;;;;;;;1.35;0.82;;;3.10;1.00;;;;;;5110399;28;20485;-77
2022/03/28 06:22:40;;;;;;;0.22;0.22;;;3.10;1.00;;;;;;5103625;28;20586;-75
2022/03/28 06:25:08;;;;;;;0.25;0.25;;;3.20;1.00;;;;;;5094126;28;20044;-74
2022/03/28 06:27:40;;;;;;;0.10;0.10;;;3.50;1.00;;;;;;5094440;28;20066;-74
2022/03/28 06:30:11;;;;;;;0.35;0.35;;;3.60;1.00;;;;;;5095214;28;20044;-74
2022/03/28 06:32:38;;;;;;;0.20;0.20;;;3.80;1.00;;;;;;5094771;28;20036;-75
2022/03/28 06:35:06;;;;;;;0.08;0.08;;;3.80;1.00;;;;;;5097368;28;20079;-75
2022/03/28 06:37:33;;;;;;;5.43;1.20;;;3.90;1.00;;;;;;5114476;28;20035;-75
2022/03/28 06:39:58;;;;;;;0.10;0.10;;;4.10;1.00;;;;;;5105949;28;20128;-75
2022/03/28 06:42:25;;;;;;;0.10;0.10;;;4.20;1.00;;;;;;5094007;28;20574;-74
2022/03/28 06:44:51;;;;;;;0.10;0.10;;;4.20;1.00;;;;;;5094550;28;20115;-74
2022/03/28 06:47:17;;;;;;;0.10;0.10;;;4.40;1.00;;;;;;5097551;28;20134;-75
2022/03/28 06:49:42;;;;;;;0.10;0.10;;;4.50;1.00;;;;;;5094738;28;20127;-75
2022/03/28 06:52:09;;;;;;;0.20;0.20;;;4.50;1.00;;;;;;5094379;28;20032;-75
2022/03/28 06:54:35;;;;;;;0.10;0.10;;;4.60;1.00;;;;;;5096548;28;20122;-75
2022/03/28 06:57:02;;;;;;;0.82;0.82;;;4.70;1.00;;;;;;5104890;28;20115;-75
2022/03/28 06:59:29;;;;;;;0.30;0.30;;;4.80;1.00;;;;;;5094308;28;20101;-75
2022/03/28 07:01:57;;;;;;;0.57;0.57;;;4.80;1.00;;;;;;5094546;28;20028;-75
2022/03/28 07:04:23;;;;;;;0.20;0.20;;;4.90;1.00;;;;;;5094627;28;20032;-75
2022/03/28 07:06:49;;;;;;;0.10;0.10;;;5.10;1.00;;;;;;5094221;28;20093;-74
2022/03/28 07:09:16;;;;;;;0.20;0.20;;;5.20;1.00;;;;;;5094592;28;20577;-74
2022/03/28 07:11:41;;;;;;;0.10;0.10;;;5.40;1.00;;;;;;5093639;28;20096;-74
2022/03/28 07:14:07;;;;;;;0.10;0.10;;;5.50;1.00;;;;;;5094321;28;20044;-75
2022/03/28 07:16:34;;;;;;;0.10;0.10;;;5.30;1.00;;;;;;5094048;28;20067;-76
2022/03/28 07:19:00;;;;;;;0.10;0.10;;;5.60;1.00;;;;;;5101326;28;20047;-74
2022/03/28 07:21:27;;;;;;;0.40;0.40;;;5.70;1.00;;;;;;5075576;28;20406;-76
2022/03/28 07:23:53;;;;;;;0.63;0.63;;;5.90;1.00;;;;;;5100416;28;20183;-75
2022/03/28 07:26:20;;;;;;;0.10;0.10;;;6.10;1.00;;;;;;5103603;28;20579;-75
2022/03/28 07:28:46;;;;;;;1.02;0.60;;;6.30;1.00;;;;;;5104692;28;20040;-75
2022/03/28 07:31:12;;;;;;;0.10;0.10;;;6.40;1.00;;;;;;5094949;28;20032;-75
2022/03/28 07:33:39;;;;;;;0.03;0.03;;;6.40;1.00;;;;;;5099979;28;20043;-75
2022/03/28 07:36:06;;;;;;;0.17;0.17;;;6.40;1.00;;;;;;5085664;28;20054;-76
2022/03/28 07:38:32;;;;;;;1.13;0.95;;;6.40;1.00;;;;;;5093930;28;20040;-77
2022/03/28 07:40:59;;;;;;;0.68;0.68;;;6.50;1.00;;;;;;5112262;28;20042;-75
2022/03/28 07:43:24;;;;;;;0.30;0.30;;;6.80;1.00;;;;;;5109093;28;20055;-75
2022/03/28 07:45:53;;;;;;;0.68;0.68;;;7.00;1.00;;;;;;5108562;28;20051;-75
2022/03/28 07:48:19;;;;;;;0.17;0.17;;;6.80;1.00;;;;;;5118125;28;20100;-75
2022/03/28 07:50:46;;;;;;;0.15;0.15;;;7.00;1.00;;;;;;5113722;28;20122;-76
2022/03/28 07:53:12;;;;;;;0.20;0.20;;;7.10;1.00;;;;;;5106187;28;20048;-74
2022/03/28 07:55:39;;;;;;;0.38;0.30;;;7.20;1.00;;;;;;5113373;28;20088;-76
2022/03/28 07:58:09;;;;;;;0.45;0.45;;;7.30;1.00;;;;;;5117614;28;20044;-76
2022/03/28 08:00:37;;;;;;;0.93;0.53;;;7.40;1.00;;;;;;5117583;28;20035;-76
2022/03/28 08:03:04;;;;;;;1.02;0.70;;;7.40;1.00;;;;;;5117263;28;20035;-76
2022/03/28 08:05:30;;;;;;;0.52;0.52;;;7.60;1.00;;;;;;5117532;28;20070;-76
2022/03/28 08:07:57;;;;;;;0.30;0.30;;;7.90;1.00;;;;;;5117051;28;20063;-76
2022/03/28 08:10:23;;;;;;;0.45;0.45;;;8.00;1.00;;;;;;5116866;28;20040;-76
2022/03/28 08:12:50;;;;;;;0.10;0.10;;;8.00;1.00;;;;;;5117360;28;20039;-76
2022/03/28 08:15:17;;;;;;;0.20;0.20;;;8.20;1.00;;;;;;5116922;28;20051;-76
2022/03/28 08:17:43;;;;;;;0.32;0.32;;;8.30;1.00;;;;;;5117612;28;20493;-76
2022/03/28 08:20:11;;;;;;;0.17;0.17;;;8.50;1.00;;;;;;5117523;28;20050;-76
2022/03/28 08:22:45;;;;;;;0.45;0.35;;;8.60;1.00;;;;;;5117157;28;20102;-76
2022/03/28 08:25:10;;;;;;;0.10;0.10;;;8.80;1.00;;;;;;5117828;28;20480;-76
2022/03/28 08:27:36;;;;;;;0.30;0.30;;;9.00;1.00;;;;;;5117253;28;20119;-76
2022/03/28 08:30:04;;;;;;;0.30;0.30;;;9.10;1.00;;;;;;5117075;28;20039;-76
2022/03/28 08:32:29;;;;;;;0.20;0.20;;;9.10;1.00;;;;;;5116987;28;20032;-76
2022/03/28 08:34:55;;;;;;;0.40;0.40;;;9.30;1.00;;;;;;5117493;28;20066;-76
2022/03/28 08:37:21;;;;;;;0.30;0.30;;;9.50;1.00;;;;;;5116732;28;20044;-76
2022/03/28 08:39:54;;;;;;;0.47;0.47;;;9.70;1.00;;;;;;5116626;28;20035;-76
2022/03/28 08:42:21;;;;;;;0.30;0.28;;;10.00;1.00;;;;;;5116695;28;20520;-76
2022/03/28 08:44:48;;;;;;;0.57;0.57;;;10.10;1.00;;;;;;5116777;28;20031;-76
2022/03/28 08:47:17;;;;;;;0.30;0.30;;;10.30;1.00;;;;;;5116269;28;20051;-76
2022/03/28 08:49:45;;;;;;;2.13;0.47;;;10.30;1.00;;;;;;5116678;28;20067;-76
2022/03/28 08:52:11;;;;;;;3.45;0.77;;;10.70;1.00;;;;;;5116177;28;20063;-76
2022/03/28 08:54:37;;;;;;;0.47;0.47;;;11.20;1.00;;;;;;5116267;28;20032;-76
2022/03/28 08:57:04;;;;;;;2.60;1.23;;;11.30;1.00;;;;;;5116411;28;20051;-76
2022/03/28 08:59:30;;;;;;;1.20;1.10;;;11.50;1.00;;;;;;5115954;28;20073;-76
2022/03/28 09:01:56;;;;;;;0.40;0.40;;;11.50;1.00;;;;;;5116070;28;20047;-76
2022/03/28 09:04:22;;;;;;;0.40;0.40;;;11.90;1.00;;;;;;5116237;28;20035;-76
2022/03/28 09:06:47;;;;;;;1.45;0.98;;;12.20;1.00;;;;;;5116355;28;20454;-76
2022/03/28 09:09:18;;;;;;;0.28;0.28;;;12.00;1.00;;;;;;5116022;28;20065;-76
2022/03/28 09:11:53;;;;;;;0.93;0.88;;;12.20;1.00;;;;;;5116162;28;20047;-76
2022/03/28 09:14:36;;;;;;;0.40;0.40;;;12.20;1.00;;;;;;5116203;28;20521;-76
2022/03/28 09:17:09;;;;;;;1.67;1.58;;;12.50;1.00;;;;;;5116306;28;20134;-76
2022/03/28 09:19:50;;;;;;;0.38;0.38;;;12.70;1.00;;;;;;5116700;28;20122;-76
2022/03/28 09:22:15;;;;;;;1.30;1.25;;;12.90;1.00;;;;;;5116270;28;20438;-76
2022/03/28 09:24:43;;;;;;;1.10;0.98;;;13.00;1.00;;;;;;5116268;28;20114;-76
2022/03/28 09:27:11;;;;;;;0.32;0.32;;;13.50;1.00;;;;;;5116050;28;20045;-76
2022/03/28 09:29:52;;;;;;;5.30;1.42;;;13.70;1.00;;;;;;5116723;28;20070;-76
2022/03/28 09:32:24;;;;;;;1.23;0.93;;;13.80;1.00;;;;;;5116162;28;20046;-76
2022/03/28 09:35:06;;;;;;;2.75;1.70;;;13.90;1.00;;;;;;5116071;28;20035;-76
2022/03/28 09:37:58;;;;;;;1.08;0.57;;;13.90;1.00;;;;;;5116078;28;20031;-76
2022/03/28 09:40:29;;;;;;;0.57;0.57;;;14.20;99.90;;;;;;5107145;28;20118;-76
2022/03/28 09:42:56;;;;;;;0.35;0.35;;;14.40;99.90;;;;;;5116026;28;20043;-76
2022/03/28 09:45:27;;;;;;;1.17;1.00;;;14.40;99.90;;;;;;5115872;28;20042;-76
2022/03/28 09:47:55;;;;;;;0.75;0.75;;;14.50;99.90;;;;;;5116144;28;20470;-76
2022/03/28 09:50:29;;;;;;;1.63;1.52;;;14.60;99.90;;;;;;5115766;28;20043;-76
2022/03/28 09:52:55;;;;;;;3.50;1.75;;;14.50;99.90;;;;;;5115885;28;20118;-76
2022/03/28 09:55:21;;;;;;;0.30;0.30;;;14.50;99.90;;;;;;5115832;28;20533;-76
2022/03/28 09:57:46;;;;;;;0.80;0.80;;;14.50;99.90;;;;;;5115654;28;20039;-76
2022/03/28 10:00:18;;;;;;;0.90;0.90;;;14.60;99.90;;;;;;5115628;28;20027;-76
2022/03/28 10:02:44;;;;;;;1.40;0.77;;;14.60;99.90;;;;;;5115645;28;20043;-76
2022/03/28 10:05:11;;;;;;;1.17;1.02;;;14.60;99.90;;;;;;5097324;28;20038;-76
2022/03/28 10:07:37;;;;;;;0.85;0.82;;;14.80;99.90;;;;;;5114791;28;20486;-76
2022/03/28 10:10:04;;;;;;;1.10;1.08;;;14.80;99.90;;;;;;5115301;28;20035;-76
2022/03/28 10:12:29;;;;;;;0.68;0.68;;;14.90;99.90;;;;;;5115355;28;20050;-76
2022/03/28 10:15:01;;;;;;;1.55;1.27;;;14.90;99.90;;;;;;5115387;28;20461;-75
2022/03/28 10:17:29;;;;;;;2.28;1.75;;;15.00;99.90;;;;;;5115122;28;20046;-76
2022/03/28 10:19:55;;;;;;;0.43;0.38;;;15.00;99.90;;;;;;5115149;28;20035;-76
2022/03/28 10:22:35;;;;;;;0.55;0.55;;;14.90;99.90;;;;;;5114994;28;20036;-76
2022/03/28 10:25:08;;;;;;;0.47;0.47;;;15.00;99.90;;;;;;5115066;28;20088;-76
2022/03/28 10:27:36;;;;;;;5.20;0.50;;;15.00;99.90;;;;;;5114954;28;20107;-76
2022/03/28 10:30:24;;;;;;;2.88;1.13;;;15.10;99.90;;;;;;5114713;28;20443;-76
2022/03/28 10:33:20;;;;;;;0.98;0.95;;;15.20;99.90;;;;;;5115464;28;20081;-76
2022/03/28 10:36:19;;;;;;;1.33;1.25;;;15.40;99.90;;;;;;5113805;28;20043;-77
2022/03/28 10:38:45;;;;;;;0.20;0.20;;;15.50;99.90;;;;;;5114634;28;20118;-75
2022/03/28 10:41:15;;;;;;;1.05;1.00;;;15.40;99.90;;;;;;5114685;28;20122;-76
2022/03/28 10:43:41;;;;;;;0.55;0.55;;;15.40;99.90;;;;;;5114905;28;20486;-76
2022/03/28 10:46:10;;;;;;;1.65;1.55;;;15.50;99.90;;;;;;5114787;28;20040;-76
2022/03/28 10:48:59;;;;;;;1.33;0.68;;;15.60;99.90;;;;;;5089607;28;20048;-75
2022/03/28 10:51:29;;;;;;;1.35;1.25;;;15.60;99.90;;;;;;5093156;28;20561;-76
2022/03/28 10:54:05;;;;;;;1.67;1.45;;;15.80;99.90;;;;;;5093893;28;20051;-76
2022/03/28 10:56:43;;;;;;;0.85;0.85;;;15.90;99.90;;;;;;5093199;28;20048;-76
2022/03/28 10:59:17;;;;;;;0.73;0.60;;;15.80;99.90;;;;;;5094337;28;20040;-75
2022/03/28 11:01:45;;;;;;;0.70;0.70;;;15.90;99.90;;;;;;5092796;28;20048;-75
2022/03/28 11:04:16;;;;;;;0.75;0.75;;;16.00;99.90;;;;;;5081391;28;20062;-75
2022/03/28 11:07:06;;;;;;;10.70;2.17;;;16.10;99.90;;;;;;5091634;28;20036;-75
2022/03/28 11:09:45;;;;;;;5.10;2.77;;;16.10;99.90;;;;;;5091579;28;20047;-76
2022/03/28 11:12:32;;;;;;;2.15;1.45;;;16.20;99.90;;;;;;5092885;28;20043;-75
2022/03/28 11:15:24;;;;;;;3.17;1.08;;;16.10;99.90;;;;;;5094593;28;20032;-75
2022/03/28 11:18:07;;;;;;;1.10;1.05;;;16.00;99.90;;;;;;5096899;28;20048;-76
2022/03/28 11:20:52;;;;;;;1.30;0.80;;;16.10;99.90;;;;;;5096365;28;20048;-76
2022/03/28 11:23:21;;;;;;;0.75;0.52;;;16.00;99.90;;;;;;5096007;28;20080;-75
2022/03/28 11:25:51;;;;;;;1.52;1.05;;;16.00;99.90;;;;;;5096851;28;20067;-76
2022/03/28 11:28:22;;;;;;;1.38;1.30;;;16.00;99.90;;;;;;5097555;28;20040;-75
2022/03/28 11:30:50;;;;;;;1.70;1.60;;;16.10;99.90;;;;;;5096319;28;20190;-76
2022/03/28 11:33:27;;;;;;;0.30;0.30;;;16.10;99.90;;;;;;5095427;28;20147;-76
2022/03/28 11:35:56;;;;;;;1.00;1.00;;;16.30;99.90;;;;;;5096419;28;20040;-76
2022/03/28 11:38:29;;;;;;;2.08;1.55;;;16.40;99.90;;;;;;5096612;28;20028;-76
2022/03/28 11:40:57;;;;;;;0.68;0.68;;;16.30;99.90;;;;;;5096066;28;20048;-75
2022/03/28 11:43:30;;;;;;;0.57;0.57;;;16.20;99.90;;;;;;5096238;28;20040;-75
2022/03/28 11:45:58;;;;;;;1.55;1.45;;;16.30;99.90;;;;;;5097189;28;20059;-75
2022/03/28 11:48:24;;;;;;;6.15;0.85;;;16.40;99.90;;;;;;5096438;28;20044;-75
2022/03/28 11:50:50;;;;;;;1.15;1.08;;;16.50;99.90;;;;;;5095695;28;20570;-75
2022/03/28 11:53:18;;;;;;;0.75;0.75;;;16.50;99.90;;;;;;5094724;28;20036;-75
2022/03/28 11:55:53;;;;;;;0.50;0.50;;;16.30;99.90;;;;;;5094646;28;20063;-75
2022/03/28 11:58:31;;;;;;;3.83;0.95;;;16.40;99.90;;;;;;5097244;28;20109;-75
2022/03/28 12:01:09;;;;;;;0.95;0.82;;;16.40;99.90;;;;;;5097259;28;20032;-75
2022/03/28 12:03:37;;;;;;;1.55;1.20;;;16.50;99.90;;;;;;5097076;28;20028;-75
2022/03/28 12:06:04;;;;;;;3.90;1.52;;;16.50;99.90;;;;;;5079746;28;20040;-75
2022/03/28 12:08:31;;;;;;;0.88;0.88;;;16.50;99.90;;;;;;5097313;28;20036;-75
2022/03/28 12:10:56;;;;;;;1.10;1.05;;;16.50;99.90;;;;;;5096744;28;20036;-74
2022/03/28 12:13:24;;;;;;;0.57;0.57;;;16.40;99.90;;;;;;5096720;28;20036;-74
2022/03/28 12:15:52;;;;;;;5.15;2.92;;;16.60;99.90;;;;;;5097507;28;20098;-75
2022/03/28 12:18:20;;;;;;;0.88;0.80;;;16.50;99.90;;;;;;5097462;28;20048;-75
2022/03/28 12:20:51;;;;;;;3.42;1.63;;;16.40;99.90;;;;;;5097106;28;20131;-75
2022/03/28 12:23:20;;;;;;;0.65;0.57;;;16.40;99.90;;;;;;5097720;28;20124;-75
2022/03/28 12:25:47;;;;;;;0.63;0.63;;;16.30;99.90;;;;;;5112203;28;20484;-75
2022/03/28 12:28:25;;;;;;;0.40;0.40;;;16.30;99.90;;;;;;5096847;28;20074;-74
2022/03/28 12:30:55;;;;;;;1.30;0.85;;;16.40;99.90;;;;;;5097415;28;20048;-75
2022/03/28 12:33:44;;;;;;;2.97;2.17;;;16.50;99.90;;;;;;5096924;28;20513;-75
2022/03/28 12:36:19;;;;;;;2.22;1.55;;;16.60;99.90;;;;;;5098808;28;20105;-75
2022/03/28 12:38:56;;;;;;;0.90;0.82;;;16.70;99.90;;;;;;5096463;28;20119;-75
2022/03/28 12:41:22;;;;;;;6.30;2.47;;;16.70;99.90;;;;;;5096581;28;20108;-75
2022/03/28 12:43:50;;;;;;;0.52;0.52;;;16.80;99.90;;;;;;5096024;28;20126;-75
2022/03/28 12:46:17;;;;;;;2.38;0.75;;;16.80;99.90;;;;;;5097018;28;20040;-75
2022/03/28 12:48:49;;;;;;;1.25;1.15;;;16.60;99.90;;;;;;5097160;28;20061;-76
2022/03/28 12:51:24;;;;;;;1.02;0.77;;;16.80;99.90;;;;;;5108036;28;20036;-75
2022/03/28 12:53:51;;;;;;;2.78;1.77;;;16.80;99.90;;;;;;5096757;28;20043;-76
2022/03/28 12:56:21;;;;;;;2.95;1.00;;;16.70;99.90;;;;;;5107187;28;20036;-76
2022/03/28 12:58:55;;;;;;;3.03;2.70;;;16.70;99.90;;;;;;5098261;28;20074;-77
2022/03/28 13:01:28;;;;;;;2.20;1.75;;;16.50;99.90;;;;;;5096502;28;20047;-76
2022/03/28 13:04:17;;;;;;;2.78;2.03;;;16.50;99.90;;;;;;5096534;28;20028;-74
2022/03/28 13:06:45;;;;;;;1.77;1.67;;;16.60;99.90;;;;;;5077542;28;20047;-77